Time;durP1;ratioP1;P1;durP2;ratioP2;P2;SDS_P1;SDS_P2;PMS_P1;PMS_P2;Temp;Humidity;BMP_temperature;BMP_pressure;BME280_temperature;BME280_humidity;BME280_pressure;Samples;Min_cycle;Max_cycle;Signal;HPM_P1;HPM_P2
2022/03/08 00:00:27;;;;;;;39.10;17.65;;;;;;;-0.02;100.00;102307.34;4831780;29;20026;-82
2022/03/08 00:02:54;;;;;;;38.25;18.25;;;;;;;0.04;100.00;102322.88;4839485;29;20059;-81
2022/03/08 00:05:20;;;;;;;41.45;18.50;;;;;;;0.07;100.00;102319.19;4828967;29;20086;-81
2022/03/08 00:07:47;;;;;;;42.08;17.70;;;;;;;0.07;100.00;102316.56;4845350;29;20015;-80
2022/03/08 00:10:14;;;;;;;48.58;18.63;;;;;;;0.05;100.00;102319.28;4848191;29;20026;-81
2022/03/08 00:12:39;;;;;;;43.53;18.27;;;;;;;0.03;100.00;102326.44;4834628;29;20023;-82
2022/03/08 00:15:08;;;;;;;37.08;17.48;;;;;;;0.01;100.00;102328.34;4829410;29;20102;-81
2022/03/08 00:17:34;;;;;;;40.05;17.20;;;;;;;-0.05;100.00;102318.97;4838493;29;20066;-81
2022/03/08 00:19:59;;;;;;;35.28;17.63;;;;;;;-0.02;100.00;102321.44;4846707;29;20082;-81
2022/03/08 00:22:25;;;;;;;41.75;18.13;;;;;;;-0.02;100.00;102320.59;4847187;29;20023;-81
2022/03/08 00:24:50;;;;;;;42.22;18.15;;;;;;;0.03;100.00;102328.25;4847829;29;20022;-81
2022/03/08 00:27:15;;;;;;;43.60;19.30;;;;;;;-0.08;100.00;102299.78;4846608;29;20094;-82
2022/03/08 00:29:41;;;;;;;39.88;18.33;;;;;;;0.03;100.00;102315.00;4846572;29;20025;-80
2022/03/08 00:32:07;;;;;;;43.50;18.65;;;;;;;0.09;100.00;102326.06;4847353;29;20041;-82
2022/03/08 00:34:32;;;;;;;43.22;19.25;;;;;;;0.11;100.00;102321.53;4830447;29;20041;-82
2022/03/08 00:36:58;;;;;;;44.13;18.75;;;;;;;0.18;100.00;102316.72;4845876;29;20030;-82
2022/03/08 00:39:23;;;;;;;47.88;20.08;;;;;;;0.16;100.00;102300.06;4830966;29;20019;-80
2022/03/08 00:41:49;;;;;;;39.83;19.33;;;;;;;0.17;100.00;102292.06;4825386;29;20038;-81
2022/03/08 00:44:14;;;;;;;47.42;20.48;;;;;;;0.32;100.00;102316.72;4829016;29;20034;-79
2022/03/08 00:46:39;;;;;;;41.30;19.40;;;;;;;0.22;100.00;102289.13;4830885;29;20502;-80
2022/03/08 00:49:05;;;;;;;42.67;20.38;;;;;;;0.23;100.00;102288.16;4830990;29;20034;-81
2022/03/08 00:51:30;;;;;;;46.20;20.42;;;;;;;0.39;100.00;102310.09;4846676;29;20014;-81
2022/03/08 00:53:56;;;;;;;45.58;20.42;;;;;;;0.41;100.00;102310.00;4846420;29;20041;-82
2022/03/08 00:56:21;;;;;;;46.85;20.73;;;;;;;0.40;100.00;102295.91;4844500;29;20051;-81
2022/03/08 00:58:47;;;;;;;48.42;20.77;;;;;;;0.43;100.00;102298.38;4839987;29;20034;-80
2022/03/08 01:01:12;;;;;;;45.17;20.88;;;;;;;0.44;100.00;102297.41;4862753;29;20038;-81
2022/03/08 01:03:38;;;;;;;44.38;20.45;;;;;;;0.21;100.00;102250.38;4846101;29;20041;-81
2022/03/08 01:06:03;;;;;;;47.67;20.77;;;;;;;0.52;100.00;102302.22;4846702;29;20033;-81
2022/03/08 01:08:29;;;;;;;43.75;19.85;;;;;;;0.53;100.00;102300.41;4848969;29;20030;-81
2022/03/08 01:10:55;;;;;;;45.83;21.65;;;;;;;0.53;100.00;102306.59;4845902;29;20018;-81
2022/03/08 01:13:20;;;;;;;44.70;20.85;;;;;;;0.53;100.00;102305.72;4831531;29;20031;-81
2022/03/08 01:15:46;;;;;;;48.85;20.40;;;;;;;0.49;100.00;102302.41;4845298;29;20047;-81
2022/03/08 01:18:11;;;;;;;45.22;20.30;;;;;;;0.39;100.00;102288.91;4831426;29;20055;-81
2022/03/08 01:20:37;;;;;;;44.35;20.33;;;;;;;0.44;100.00;102300.06;4840958;29;20030;-81
2022/03/08 01:23:02;;;;;;;43.83;20.38;;;;;;;0.43;100.00;102300.16;4848104;29;20035;-82
2022/03/08 01:25:28;;;;;;;42.90;19.92;;;;;;;0.37;100.00;102288.16;4849049;29;20015;-82
2022/03/08 01:27:54;;;;;;;52.42;20.55;;;;;;;0.39;100.00;102286.25;4832193;29;20109;-82
2022/03/08 01:40:40;;;;;;;37.45;18.77;;;;;;;-0.38;100.00;102186.13;5806900;24;20987;-82
2022/03/08 01:43:05;;;;;;;39.53;19.05;;;;;;;-1.08;100.00;102096.09;4855613;29;20046;-80
2022/03/08 01:45:33;;;;;;;40.80;19.60;;;;;;;0.04;100.00;102264.66;4849876;29;20015;-81
2022/03/08 01:48:00;;;;;;;41.97;19.50;;;;;;;0.18;100.00;102293.75;4837622;29;20059;-81
2022/03/08 01:50:26;;;;;;;35.53;19.05;;;;;;;0.16;100.00;102294.78;4867824;29;20042;-81
2022/03/08 01:52:52;;;;;;;39.83;19.60;;;;;;;0.18;100.00;102295.56;4865900;29;20045;-82
2022/03/08 01:55:18;;;;;;;40.72;19.52;;;;;;;0.13;100.00;102292.31;4868207;29;20053;-81
2022/03/08 01:57:49;;;;;;;42.45;19.83;;;;;;;0.12;100.00;102286.19;4867188;29;20025;-82
2022/03/08 02:00:18;;;;;;;41.22;19.45;;;;;;;-0.02;100.00;102270.31;4866652;29;20033;-80
2022/03/08 02:02:44;;;;;;;43.58;19.58;;;;;;;0.20;100.00;102302.47;4867530;29;20041;-80
2022/03/08 02:05:10;;;;;;;44.95;20.67;;;;;;;0.19;100.00;102295.44;4867745;29;20022;-82
2022/03/08 02:07:36;;;;;;;47.92;20.27;;;;;;;0.17;100.00;102296.50;4853481;29;20042;-80
2022/03/08 02:10:03;;;;;;;38.38;19.42;;;;;;;-0.27;100.00;102223.34;4849812;29;20034;-82
2022/03/08 02:12:28;;;;;;;40.78;19.75;;;;;;;0.11;100.00;102292.44;4859921;29;20029;-81
2022/03/08 02:14:54;;;;;;;39.88;19.63;;;;;;;0.11;100.00;102292.44;4852103;29;20029;-80
2022/03/08 02:17:19;;;;;;;44.22;19.45;;;;;;;0.08;100.00;102287.31;4843152;29;20022;-82
2022/03/08 02:19:45;;;;;;;39.95;19.90;;;;;;;0.07;100.00;102288.28;4864708;29;20018;-81
2022/03/08 02:22:10;;;;;;;45.83;20.58;;;;;;;0.01;100.00;102279.88;4849370;29;20043;-81
2022/03/08 02:24:35;;;;;;;41.70;19.13;;;;;;;0.06;100.00;102289.19;4849579;29;20015;-82
2022/03/08 02:27:01;;;;;;;39.92;20.58;;;;;;;0.04;100.00;102284.97;4865301;29;20048;-81
2022/03/08 02:29:27;;;;;;;44.78;22.17;;;;;;;0.03;100.00;102288.53;4867361;29;20077;-80
2022/03/08 02:31:54;;;;;;;43.28;21.25;;;;;;;-0.05;100.00;102276.63;4864759;29;20098;-80
2022/03/08 02:34:19;;;;;;;44.42;21.17;;;;;;;0.03;100.00;102284.09;4867202;29;20097;-81
2022/03/08 02:37:08;;;;;;;48.80;21.38;;;;;;;-0.06;100.00;102269.66;4866401;29;20026;-81
2022/03/08 02:39:34;;;;;;;44.90;21.88;;;;;;;-0.08;100.00;102268.03;4867576;29;20020;-82
2022/03/08 03:01:14;;;;;;;53.03;25.67;;;;;;;-0.17;100.00;102277.38;4862654;24;20095;-82
2022/03/08 03:03:39;;;;;;;59.40;28.52;;;;;;;-0.26;100.00;102264.75;4848283;29;20034;-82
2022/03/08 03:06:04;;;;;;;55.08;26.88;;;;;;;-0.18;100.00;102280.13;4847723;29;20026;-81
2022/03/08 03:08:30;;;;;;;54.42;28.10;;;;;;;-0.18;100.00;102275.69;4832931;29;20030;-80
2022/03/08 03:10:55;;;;;;;54.90;27.67;;;;;;;-0.12;100.00;102279.75;4832257;29;20055;-81
2022/03/08 03:45:19;;;;;;;83.75;34.38;;;;;;;-0.48;100.00;102115.28;5231143;24;20038;-81
2022/03/08 03:47:44;;;;;;;87.93;35.83;;;;;;;-1.26;100.00;101958.06;4861863;29;20091;-81
2022/03/08 03:50:10;;;;;;;79.78;35.45;;;;;;;0.00;100.00;102154.66;4856552;29;20045;-80
2022/03/08 03:55:13;;;;;;;81.40;34.33;;;;;;;-1.17;100.00;101965.44;5470079;24;20060;-81
2022/03/08 03:57:38;;;;;;;89.88;36.47;;;;;;;-0.32;100.00;102087.91;4860992;29;20053;-81
2022/03/08 04:00:05;;;;;;;96.32;38.10;;;;;;;-1.23;100.00;101957.88;4864983;29;20022;-82
2022/03/08 04:02:31;;;;;;;97.40;37.35;;;;;;;-0.80;100.00;102016.00;4857999;29;20095;-82
2022/03/08 04:04:57;;;;;;;99.88;38.67;;;;;;;-0.28;100.00;102073.53;4855634;29;20045;-81
2022/03/08 04:07:23;;;;;;;131.48;41.40;;;;;;;0.41;100.00;102193.50;4858075;29;20045;-81
2022/03/08 04:09:49;;;;;;;145.55;42.97;;;;;;;0.88;100.00;102283.13;4848784;29;20037;-80
2022/03/08 04:12:15;;;;;;;155.05;42.50;;;;;;;-0.86;100.00;101976.72;4840241;29;20440;-80
2022/03/08 04:14:40;;;;;;;197.40;43.58;;;;;;;0.94;100.00;102281.88;4846498;29;20022;-82
2022/03/08 04:17:06;;;;;;;215.55;47.35;;;;;;;0.98;100.00;102269.28;4860323;29;20089;-81
2022/03/08 04:19:31;;;;;;;199.18;45.85;;;;;;;1.00;100.00;102267.38;4864694;29;20038;-82
2022/03/08 04:21:57;;;;;;;210.05;46.42;;;;;;;0.96;100.00;102257.91;4865084;29;20050;-81
2022/03/08 04:24:22;;;;;;;255.40;50.22;;;;;;;1.04;100.00;102266.22;4849236;29;20014;-82
2022/03/08 04:26:48;;;;;;;285.45;49.25;;;;;;;1.05;100.00;102274.06;4858408;29;20078;-81
2022/03/08 04:29:13;;;;;;;295.48;48.58;;;;;;;0.99;100.00;102255.91;4844390;29;20067;-82
2022/03/08 04:31:38;;;;;;;281.02;47.88;;;;;;;1.05;100.00;102262.63;4846048;29;20029;-81
2022/03/08 04:34:05;;;;;;;459.35;53.95;;;;;;;1.11;100.00;102268.34;4862806;29;20062;-82
2022/03/08 04:36:31;;;;;;;479.83;52.35;;;;;;;1.15;100.00;102279.59;4864955;29;20081;-80
2022/03/08 04:38:56;;;;;;;418.73;52.20;;;;;;;1.18;100.00;102274.09;4849585;29;20030;-81
2022/03/08 04:41:21;;;;;;;658.92;58.92;;;;;;;1.20;100.00;102272.22;4862037;29;20034;-82
2022/03/08 04:43:47;;;;;;;541.88;53.60;;;;;;;1.20;100.00;102266.91;4845547;29;20065;-81
2022/03/08 04:46:12;;;;;;;609.65;56.55;;;;;;;1.25;100.00;102274.53;4845109;29;20038;-82
2022/03/08 04:48:38;;;;;;;422.23;49.75;;;;;;;1.28;100.00;102271.69;4845184;29;20046;-80
2022/03/08 04:51:03;;;;;;;465.02;51.55;;;;;;;1.14;100.00;102252.25;4844651;29;20046;-81
2022/03/08 04:53:28;;;;;;;442.77;49.85;;;;;;;1.27;100.00;102284.09;4862125;29;20021;-80
2022/03/08 04:55:54;;;;;;;561.72;55.67;;;;;;;1.23;100.00;102271.16;4861287;29;20065;-80
2022/03/08 04:58:19;;;;;;;430.33;46.58;;;;;;;1.21;100.00;102259.81;4861019;29;20067;-81
2022/03/08 05:00:44;;;;;;;456.67;46.40;;;;;;;1.25;100.00;102274.53;4841897;29;20037;-81
2022/03/08 05:03:10;;;;;;;321.40;41.40;;;;;;;1.21;100.00;102255.34;4854784;29;20424;-81
2022/03/08 05:05:35;;;;;;;599.25;50.92;;;;;;;1.23;100.00;102256.09;4858890;29;20030;-81
2022/03/08 05:08:03;;;;;;;478.02;45.63;;;;;;;1.37;100.00;102279.88;4861188;29;20010;-80
2022/03/08 05:10:28;;;;;;;484.92;48.10;;;;;;;1.29;100.00;102252.16;4867514;29;20034;-81
2022/03/08 05:12:54;;;;;;;456.48;45.33;;;;;;;1.36;100.00;102264.94;4846975;29;20037;-80
2022/03/08 05:15:19;;;;;;;456.45;44.42;;;;;;;1.44;100.00;102277.66;4834402;29;20046;-80
2022/03/08 05:17:44;;;;;;;432.30;43.78;;;;;;;1.45;100.00;102266.09;4834277;29;20034;-80
2022/03/08 05:20:10;;;;;;;275.45;36.08;;;;;;;1.46;100.00;102267.81;4837859;29;20053;-80
2022/03/08 05:22:36;;;;;;;300.30;40.97;;;;;;;1.45;100.00;102270.56;4852400;29;20480;-81
2022/03/08 05:25:03;;;;;;;277.63;38.10;;;;;;;1.45;100.00;102257.28;4854936;29;20042;-81
2022/03/08 05:32:39;;;;;;;263.00;36.15;;;;;;;1.31;100.00;102229.91;5842890;24;20827;-78
2022/03/08 05:35:05;;;;;;;342.23;38.25;;;;;;;1.60;100.00;102277.47;4849379;29;20086;-81
2022/03/08 05:37:30;;;;;;;340.08;32.58;;;;;;;1.58;100.00;102277.56;4834102;29;20025;-81
2022/03/08 05:39:56;;;;;;;388.55;36.55;;;;;;;1.59;100.00;102284.59;4825249;29;20030;-81
2022/03/08 05:42:21;;;;;;;289.83;30.77;;;;;;;1.41;100.00;102249.53;4833522;29;20051;-81
2022/03/08 05:44:46;;;;;;;246.60;29.52;;;;;;;1.66;100.00;102277.06;4817881;29;20461;-80
2022/03/08 05:47:12;;;;;;;474.55;33.97;;;;;;;1.65;100.00;102273.53;4825666;29;20345;-80
2022/03/08 05:49:37;;;;;;;389.25;33.13;;;;;;;1.76;100.00;102282.59;4829416;29;20034;-81
2022/03/08 05:52:03;;;;;;;391.83;32.17;;;;;;;1.79;100.00;102285.03;4832482;29;20068;-80
2022/03/08 05:54:28;;;;;;;386.35;31.90;;;;;;;1.83;100.00;102286.53;4828922;29;20035;-79
2022/03/08 05:56:54;;;;;;;261.40;27.95;;;;;;;1.86;100.00;102291.63;4827903;29;20031;-79
2022/03/08 05:59:19;;;;;;;189.80;24.58;;;;;;;1.76;100.00;102275.47;4829269;29;20063;-82
2022/03/08 06:01:45;;;;;;;179.50;27.95;;;;;;;1.81;100.00;102270.69;4846470;29;20030;-82
2022/03/08 06:04:10;;;;;;;106.00;26.85;;;;;;;1.90;100.00;102287.78;4847656;29;20050;-82
2022/03/08 06:06:36;;;;;;;316.23;33.22;;;;;;;1.94;100.00;102288.44;4842606;29;20409;-82
2022/03/08 06:09:01;;;;;;;142.68;32.00;;;;;;;1.91;100.00;102284.16;4846463;29;20094;-82
2022/03/08 06:11:27;;;;;;;133.60;31.77;;;;;;;1.87;100.00;102272.91;4844885;29;20090;-81
2022/03/08 06:13:52;;;;;;;111.97;31.63;;;;;;;2.00;100.00;102286.19;4830886;29;20087;-81
2022/03/08 06:16:17;;;;;;;93.25;31.45;;;;;;;2.04;100.00;102300.94;4845283;29;20090;-82
2022/03/08 06:18:43;;;;;;;86.57;32.97;;;;;;;1.98;100.00;102277.47;4845485;29;20050;-82
2022/03/08 06:21:08;;;;;;;83.38;31.98;;;;;;;2.09;100.00;102298.84;4841232;29;20031;-82
2022/03/08 06:23:34;;;;;;;86.97;32.33;;;;;;;2.10;100.00;102291.72;4844877;29;20034;-82
2022/03/08 06:25:59;;;;;;;89.65;33.55;;;;;;;2.08;100.00;102277.69;4845598;29;20022;-82
2022/03/08 06:28:24;;;;;;;97.07;34.05;;;;;;;2.19;100.00;102293.72;4842208;29;20061;-81
2022/03/08 06:30:50;;;;;;;88.65;33.75;;;;;;;2.21;100.00;102294.44;4845583;29;20042;-82
2022/03/08 06:33:15;;;;;;;87.32;33.63;;;;;;;2.21;100.00;102288.28;4846574;29;20058;-82
2022/03/08 06:35:40;;;;;;;84.10;32.97;;;;;;;2.27;100.00;102298.50;4846098;29;20042;-82
2022/03/08 06:38:06;;;;;;;80.32;32.67;;;;;;;2.24;100.00;102288.94;4843630;29;20026;-82
2022/03/08 06:40:32;;;;;;;69.22;28.85;;;;;;;2.23;100.00;102273.13;4840260;29;20108;-82
2022/03/08 06:42:57;;;;;;;59.15;26.27;;;;;;;2.34;100.00;102299.75;4825243;29;20141;-81
2022/03/08 06:45:23;;;;;;;51.63;23.13;;;;;;;2.33;100.00;102293.59;4842120;29;20026;-82
2022/03/08 06:47:48;;;;;;;49.20;21.30;;;;;;;2.26;100.00;102283.53;4839414;29;20058;-82
2022/03/08 06:50:14;;;;;;;48.75;22.15;;;;;;;2.43;100.00;102303.56;4842507;29;20098;-82
2022/03/08 06:52:39;;;;;;;62.38;22.65;;;;;;;2.34;100.00;102276.69;4836099;29;20049;-81
2022/03/08 06:55:05;;;;;;;55.78;22.38;;;;;;;2.36;100.00;102276.59;4835693;29;20048;-82
2022/03/08 06:57:31;;;;;;;57.05;23.40;;;;;;;2.51;100.00;102302.03;4829581;29;20038;-82
2022/03/08 06:59:56;;;;;;;55.95;24.05;;;;;;;2.55;100.00;102292.03;4827157;29;20102;-81
2022/03/08 07:02:22;;;;;;;49.38;23.45;;;;;;;2.63;100.00;102305.66;4826100;29;20044;-82
2022/03/08 07:04:47;;;;;;;58.85;22.85;;;;;;;2.62;100.00;102295.97;4841982;29;20041;-81
2022/03/08 07:07:13;;;;;;;42.45;19.55;;;;;;;2.55;100.00;102290.25;4844474;29;20018;-82
2022/03/08 07:09:39;;;;;;;53.28;19.05;;;;;;;2.62;100.00;102297.78;4837074;29;20117;-81
2022/03/08 07:12:05;;;;;;;42.88;18.05;;;;;;;2.65;100.00;102301.09;4831637;29;20086;-81
2022/03/08 07:14:30;;;;;;;38.10;16.63;;;;;;;2.64;100.00;102295.84;4825580;29;20067;-81
2022/03/08 07:16:56;;;;;;;41.22;16.27;;;;;;;2.64;100.00;102294.03;4830565;29;20071;-79
2022/03/08 07:19:21;;;;;;;42.00;15.70;;;;;;;2.65;100.00;102289.56;4830547;29;20042;-81
2022/03/08 07:21:48;;;;;;;34.55;15.07;;;;;;;2.64;100.00;102290.53;4831385;29;20027;-81
2022/03/08 07:24:14;;;;;;;37.53;15.32;;;;;;;2.53;100.00;102286.84;4836445;29;20031;-81
2022/03/08 07:26:40;;;;;;;34.47;15.88;;;;;;;2.58;100.00;102291.81;4840132;29;20081;-81
2022/03/08 07:29:05;;;;;;;34.55;16.08;;;;;;;2.63;100.00;102286.19;4840304;29;20058;-80
2022/03/08 07:31:31;;;;;;;36.88;16.33;;;;;;;2.74;100.00;102303.03;4831820;29;20088;-81
2022/03/08 07:33:56;;;;;;;44.20;18.50;;;;;;;2.72;100.00;102299.66;4832572;29;20046;-82
2022/03/08 07:36:22;;;;;;;40.28;16.65;;;;;;;2.67;100.00;102293.81;4832936;29;20109;-81
2022/03/08 07:38:49;;;;;;;40.30;16.48;;;;;;;2.73;100.00;102305.84;4824678;29;20026;-80
2022/03/08 07:41:14;;;;;;;36.08;14.60;;;;;;;2.74;100.00;102305.72;4821797;29;20030;-82
2022/03/08 07:43:40;;;;;;;37.10;15.60;;;;;;;2.82;100.00;102310.50;4818993;29;20054;-81
2022/03/08 07:46:07;;;;;;;31.27;16.33;;;;;;;2.81;100.00;102316.75;4841159;29;20025;-83
2022/03/08 07:48:33;;;;;;;33.08;16.88;;;;;;;2.79;100.00;102297.41;4844329;29;20026;-82
2022/03/08 07:50:59;;;;;;;42.83;16.90;;;;;;;2.82;100.00;102303.34;4841031;29;20027;-83
2022/03/08 07:53:24;;;;;;;43.08;17.83;;;;;;;1.67;100.00;102108.09;5113821;24;20013;-83
2022/03/08 07:55:50;;;;;;;33.38;16.80;;;;;;;1.47;100.00;102088.28;4852961;29;20030;-80
2022/03/08 07:58:16;;;;;;;45.83;16.95;;;;;;;1.47;100.00;102083.84;4847145;29;20058;-82
2022/03/08 08:00:41;;;;;;;41.88;16.45;;;;;;;2.78;100.00;102277.97;4849200;29;20022;-81
2022/03/08 08:05:42;;;;;;;34.42;14.40;;;;;;;1.36;100.00;102058.06;4932229;23;20997;-81
2022/03/08 08:08:08;;;;;;;34.40;14.70;;;;;;;2.99;100.00;102344.66;4860978;29;20034;-81
2022/03/08 08:10:34;;;;;;;34.92;15.27;;;;;;;1.47;100.00;102089.13;4854558;29;20075;-82
2022/03/08 08:13:02;;;;;;;38.00;15.07;;;;;;;1.56;100.00;102066.41;4851939;29;20133;-80
2022/03/08 08:15:27;;;;;;;27.98;12.05;;;;;;;3.12;100.00;102357.91;4846585;29;20448;-79
2022/03/08 08:17:53;;;;;;;31.23;12.75;;;;;;;2.06;100.00;102154.84;4849500;29;20028;-80
2022/03/08 08:20:20;;;;;;;25.58;12.23;;;;;;;3.01;100.00;102320.59;4862785;29;20026;-82
2022/03/08 08:22:45;;;;;;;34.88;12.68;;;;;;;2.94;100.00;102311.38;4853921;29;20029;-79
2022/03/08 08:25:10;;;;;;;24.23;10.88;;;;;;;3.16;100.00;102337.25;4831960;29;20031;-79
2022/03/08 08:27:37;;;;;;;23.30;10.77;;;;;;;3.26;100.00;102355.09;4842397;29;20034;-83
2022/03/08 08:30:04;;;;;;;24.02;11.68;;;;;;;3.26;100.00;102343.59;4859391;29;20350;-83
2022/03/08 08:32:29;;;;;;;23.85;10.00;;;;;;;3.28;100.00;102358.50;5153386;24;20073;-79
2022/03/08 08:34:55;;;;;;;19.23;9.82;;;;;;;3.27;100.00;102353.28;4855274;29;20034;-83
2022/03/08 08:37:21;;;;;;;19.85;10.02;;;;;;;1.87;100.00;102140.22;5072663;24;20020;-78
2022/03/08 08:39:46;;;;;;;18.95;9.30;;;;;;;3.25;100.00;102361.38;4848646;29;20125;-81
2022/03/08 08:42:11;;;;;;;17.70;10.27;;;;;;;3.20;100.00;102344.03;4860218;29;20038;-82
2022/03/08 08:44:37;;;;;;;16.52;9.15;;;;;;;2.21;100.00;102193.53;5055561;24;20073;-81
2022/03/08 09:13:56;;;;;;;35.83;8.27;;;;;;;2.14;100.00;102152.47;5872608;24;20029;31
2022/03/08 09:21:33;;;;;;;33.83;9.23;;;;;;;2.37;100.00;102216.34;5155921;24;20042;-83
2022/03/08 09:31:44;;;;;;;17.70;8.23;;;;;;;2.34;100.00;102218.25;5542873;24;20050;-81
2022/03/08 09:34:09;;;;;;;50.45;7.93;;;;;;;3.29;100.00;102376.13;5605137;24;20012;-79
2022/03/08 09:49:32;;;;;;;9.63;5.78;;;;;;;2.89;100.00;102274.50;5645853;24;20042;-79
2022/03/08 09:54:32;;;;;;;7.53;4.28;;;;;;;2.44;100.00;102196.34;5104633;24;20058;-84
2022/03/08 10:25:28;;;;;;;3.10;2.80;;;;;;;2.86;100.00;102210.94;4848541;24;20086;-83
2022/03/08 10:27:54;;;;;;;5.80;3.47;;;;;;;3.83;100.00;102373.94;4844311;29;20015;-83
2022/03/08 10:43:17;;;;;;;4.25;3.08;;;;;;;2.18;100.00;102124.72;5844340;23;20036;-83
2022/03/08 10:53:28;;;;;;;5.55;3.90;;;;;;;2.69;100.00;102174.13;5184495;24;20077;-84
2022/03/08 10:55:55;;;;;;;5.13;3.60;;;;;;;3.15;100.00;102261.09;4843629;29;20067;-82
2022/03/08 10:58:20;;;;;;;5.07;3.20;;;;;;;2.59;100.00;102173.97;4832648;29;20030;-80
2022/03/08 11:00:54;;;;;;;6.18;3.95;;;;;;;3.97;100.00;102376.38;4826947;29;20101;-79
2022/03/08 11:03:22;;;;;;;5.80;3.83;;;;;;;3.94;100.00;102374.84;4825138;29;20034;-81
2022/03/08 11:05:50;;;;;;;5.05;3.67;;;;;;;3.82;100.00;102361.59;4821854;29;20093;-80
2022/03/08 11:08:17;;;;;;;5.00;3.60;;;;;;;3.82;100.00;102361.59;4824330;29;20030;-80
2022/03/08 11:10:44;;;;;;;4.82;3.25;;;;;;;3.96;100.00;102385.34;4825398;29;20038;-77
2022/03/08 11:13:11;;;;;;;4.25;3.42;;;;;;;3.98;100.00;102376.28;4822727;29;20030;-78
2022/03/08 11:15:38;;;;;;;5.32;3.38;;;;;;;3.92;100.00;102373.25;4824201;29;20168;-77
2022/03/08 11:18:08;;;;;;;6.68;3.33;;;;;;;4.01;100.00;102375.22;4825394;29;20030;-78
2022/03/08 11:20:37;;;;;;;5.10;2.72;;;;;;;4.04;100.00;102371.44;4824908;29;20098;-77
2022/03/08 11:23:04;;;;;;;3.40;2.58;;;;;;;3.99;100.00;102374.47;4807861;29;20472;-79
2022/03/08 11:25:33;;;;;;;3.20;2.42;;;;;;;4.11;100.00;102375.34;4821601;29;20116;-78
2022/03/08 11:28:01;;;;;;;3.78;2.72;;;;;;;4.08;100.00;102372.94;4825016;29;20022;-78
2022/03/08 11:30:34;;;;;;;6.00;2.85;;;;;;;4.15;100.00;102369.66;4824470;29;20034;-78
2022/03/08 11:33:08;;;;;;;3.22;2.70;;;;;;;4.20;100.00;102377.28;4824974;29;20026;-78
2022/03/08 11:35:36;;;;;;;4.47;3.00;;;;;;;4.15;100.00;102363.50;4827674;29;20030;-78
2022/03/08 11:38:03;;;;;;;3.35;2.80;;;;;;;4.18;100.00;102366.75;4830183;29;20090;-80
2022/03/08 11:40:33;;;;;;;4.88;3.10;;;;;;;4.10;100.00;102365.66;4827927;29;20035;-80
2022/03/08 11:43:07;;;;;;;4.65;2.97;;;;;;;4.22;100.00;102383.34;4822383;29;20141;-80
2022/03/08 11:45:34;;;;;;;4.80;3.25;;;;;;;4.32;100.00;102378.16;4825436;29;20101;-79
2022/03/08 11:48:09;;;;;;;4.47;2.97;;;;;;;4.33;100.00;102374.50;4818798;29;20041;-80
2022/03/08 11:50:37;;;;;;;4.18;2.70;;;;;;;4.46;100.00;102388.56;4818940;29;20042;-79
2022/03/08 11:55:56;;;;;;;5.72;2.70;;;;;;;4.42;100.00;102382.66;4818956;29;20050;-78
2022/03/08 11:58:40;;;;;;;4.18;2.60;;;;;;;4.41;100.00;102383.63;4818322;29;20113;-79
2022/03/08 12:01:05;;;;;;;4.68;2.65;;;;;;;3.92;100.00;102309.34;4818167;29;20121;-79
2022/03/08 12:03:31;;;;;;;5.15;2.72;;;;;;;4.42;100.00;102371.13;4817929;29;20117;-78
2022/03/08 12:05:56;;;;;;;4.55;2.70;;;;;;;4.48;100.00;102378.66;4823072;29;20042;-78
2022/03/08 12:08:22;;;;;;;3.45;3.03;;;;;;;4.52;100.00;102376.59;4829020;29;20521;-80
2022/03/08 12:10:48;;;;;;;4.03;3.08;;;;;;;4.54;100.00;102378.19;4822001;29;20038;-80
2022/03/08 12:13:15;;;;;;;3.97;3.20;;;;;;;4.53;100.00;102376.47;4825448;29;20049;-79
2022/03/08 12:16:05;;;;;;;4.20;3.75;;;;;;;4.51;100.00;102381.09;4826544;29;20060;-78
2022/03/08 12:18:58;;;;;;;4.60;3.30;;;;;;;4.56;100.00;102362.88;4827040;29;20022;-79
2022/03/08 12:21:23;;;;;;;4.35;3.75;;;;;;;4.58;100.00;102378.78;4812523;29;20043;-79
2022/03/08 12:24:01;;;;;;;5.38;3.95;;;;;;;4.59;100.00;102373.31;4819081;29;20041;-78
2022/03/08 12:26:43;;;;;;;6.88;4.13;;;;;;;4.51;100.00;102356.25;4815876;29;20035;-78
2022/03/08 12:29:17;;;;;;;5.07;3.95;;;;;;;4.56;100.00;102370.88;4820942;29;20026;-78
2022/03/08 12:34:40;;;;;;;6.30;3.92;;;;;;;4.57;100.00;102359.28;4818190;29;20138;-79
2022/03/08 12:37:25;;;;;;;5.57;4.22;;;;;;;4.52;100.00;102374.78;4819520;29;20360;-80
2022/03/08 12:40:06;;;;;;;4.82;4.25;;;;;;;4.34;100.00;102358.44;4807475;29;20026;-78
2022/03/08 12:42:38;;;;;;;4.85;4.13;;;;;;;4.44;100.00;102366.53;4821356;29;20090;-78
2022/03/08 12:45:14;;;;;;;4.63;4.15;;;;;;;4.40;100.00;102365.06;4821986;29;20034;-78
2022/03/08 12:48:00;;;;;;;5.57;4.57;;;;;;;4.22;100.00;102362.03;4819074;29;20069;-78
2022/03/08 12:50:31;;;;;;;5.18;4.68;;;;;;;4.15;100.00;102343.00;4810761;29;20517;-79
2022/03/08 12:53:10;;;;;;;6.43;4.55;;;;;;;4.29;100.00;102367.75;4816307;29;20702;-79
2022/03/08 12:55:41;;;;;;;5.22;4.45;;;;;;;4.12;100.00;102347.75;4834616;29;20053;-78
2022/03/08 12:58:13;;;;;;;5.20;4.63;;;;;;;4.10;100.00;102360.31;4821777;29;20102;-78
2022/03/08 13:00:42;;;;;;;5.32;4.55;;;;;;;3.99;100.00;102363.81;4824021;29;20022;-79
2022/03/08 13:03:13;;;;;;;5.07;4.47;;;;;;;4.06;100.00;102367.69;4824703;29;20066;-78
2022/03/08 13:05:46;;;;;;;4.90;4.20;;;;;;;3.90;100.00;102353.84;4830536;29;20113;-80
2022/03/08 13:08:16;;;;;;;6.28;4.82;;;;;;;4.01;100.00;102361.91;4824301;29;20030;-78
2022/03/08 13:10:44;;;;;;;6.00;5.30;;;;;;;3.98;100.00;102356.81;4824862;29;20110;-77
2022/03/08 13:13:10;;;;;;;5.93;4.80;;;;;;;4.02;100.00;102362.75;4821668;29;20175;-79
2022/03/08 13:15:36;;;;;;;7.03;5.55;;;;;;;3.99;100.00;102355.81;4818543;29;20125;-79
2022/03/08 13:18:03;;;;;;;9.18;5.60;;;;;;;4.08;100.00;102371.09;4819180;29;20039;-78
2022/03/08 13:20:48;;;;;;;6.10;5.50;;;;;;;4.08;100.00;102357.78;4820196;29;20034;-78
2022/03/08 13:23:17;;;;;;;6.55;5.40;;;;;;;4.12;100.00;102374.38;4820741;29;20449;-79
2022/03/08 13:25:45;;;;;;;6.85;5.35;;;;;;;4.14;100.00;102369.75;4819664;29;20042;-79
2022/03/08 13:28:19;;;;;;;7.10;5.93;;;;;;;4.11;100.00;102378.88;4821465;29;20046;-79
2022/03/08 13:30:50;;;;;;;8.15;6.43;;;;;;;4.01;100.00;102380.53;4821326;29;20026;-78
2022/03/08 13:33:28;;;;;;;7.65;5.88;;;;;;;3.97;100.00;102381.72;4834843;29;20030;-78
2022/03/08 13:35:56;;;;;;;7.13;5.72;;;;;;;4.02;100.00;102387.56;4819855;29;20062;-78
2022/03/08 13:38:42;;;;;;;8.65;6.53;;;;;;;3.94;100.00;102363.31;4820179;29;20338;-79
2022/03/08 13:41:16;;;;;;;9.00;6.65;;;;;;;4.02;100.00;102384.88;4822304;29;20030;-80
2022/03/08 13:43:58;;;;;;;10.98;7.40;;;;;;;3.97;100.00;102381.72;4827397;29;20054;-79
2022/03/08 13:46:30;;;;;;;8.30;6.78;;;;;;;4.02;100.00;102384.88;4838220;29;20424;-78
2022/03/08 13:49:10;;;;;;;8.05;7.15;;;;;;;3.57;100.00;102320.00;4821655;29;20023;-80
2022/03/08 13:51:40;;;;;;;8.00;6.90;;;;;;;3.83;100.00;102352.63;4820507;29;20042;-78
2022/03/08 13:54:08;;;;;;;8.73;6.70;;;;;;;3.96;100.00;102369.38;4820510;29;20038;-78
2022/03/08 13:56:47;;;;;;;7.85;6.25;;;;;;;3.96;100.00;102372.88;4823612;29;20138;-76
2022/03/08 13:59:35;;;;;;;7.60;6.47;;;;;;;3.82;100.00;102356.28;4819053;29;20365;-79
2022/03/08 14:02:06;;;;;;;8.20;6.60;;;;;;;3.99;100.00;102380.63;4819888;29;20469;-79
2022/03/08 14:04:33;;;;;;;7.65;6.18;;;;;;;4.05;100.00;102378.47;4825296;29;20046;-80
2022/03/08 14:07:00;;;;;;;8.07;6.88;;;;;;;4.04;100.00;102379.44;4824501;29;20483;-79
2022/03/08 14:09:26;;;;;;;10.88;7.38;;;;;;;3.99;100.00;102385.97;4809794;29;20137;-80
2022/03/08 14:11:58;;;;;;;8.20;7.18;;;;;;;4.01;100.00;102388.53;4825272;29;20129;-78
2022/03/08 14:14:28;;;;;;;8.02;7.10;;;;;;;4.08;100.00;102381.75;4822025;29;20461;-80